Cropsey, Illinois
Current Conditions -  °F | °C
As of 4:35 PM on Monday 24 Nov 2014 (Local Time) from KPNT Reporting Station
Unknown Precip Unknown Precip  
Wind Chill: 17°   Ceiling: 1200
Heat Index: 31°   Visibility: 3mi
Dew Point: 29°   Wind: 25mph
Humidity: 93%   Direction: 260°W
Pressure: 29.7"   Gusts: 31mph
Location:  40.61°N, 88.48°W
Report Text: KPNT 242235Z AUTO 26022G27KT 3SM UP BKN012 OVC017 00/M01 A2970 RMK AO2 T10051015
Loading
Personal Weather Stations






























Interactive Weather Map New forecast layout! Learn more

10-Day Weather Forecast

Advertisements
Track Severe Weather on mobile